createdAt,value
2022-12-08T00:01:51.520Z,-11.47
2022-12-08T00:04:19.211Z,-11.47
2022-12-08T00:07:04.889Z,-11.19
2022-12-08T00:09:41.494Z,-11.24
2022-12-08T00:12:15.630Z,-11.48
2022-12-08T00:14:46.193Z,-11.14
2022-12-08T00:17:15.917Z,-11.08
2022-12-08T00:19:44.374Z,-11.24
2022-12-08T00:22:13.487Z,-10.96
2022-12-08T00:24:42.139Z,-11.59
2022-12-08T00:27:12.004Z,-11.27
2022-12-08T00:29:39.781Z,-11.53
2022-12-08T00:32:07.373Z,-11.54
2022-12-08T00:34:35.280Z,-11.27
2022-12-08T00:37:03.127Z,-11.59
2022-12-08T00:39:31.310Z,-11.49
2022-12-08T00:42:13.775Z,-11.77
2022-12-08T00:44:43.985Z,-11.66
2022-12-08T00:47:12.472Z,-11.70
2022-12-08T00:49:40.233Z,-11.56
2022-12-08T00:52:07.784Z,-11.38
2022-12-08T00:54:35.516Z,-11.28
2022-12-08T00:57:03.273Z,-11.74
2022-12-08T00:59:30.768Z,-11.68
2022-12-08T01:01:58.449Z,-11.68
2022-12-08T01:04:26.123Z,-11.44
2022-12-08T01:06:53.559Z,-11.44
2022-12-08T01:09:21.060Z,-11.29
2022-12-08T01:11:48.656Z,-11.32
2022-12-08T01:14:16.534Z,-11.17
2022-12-08T01:16:44.303Z,-10.96
2022-12-08T01:19:13.793Z,-11.27
2022-12-08T01:21:46.552Z,-11.44
2022-12-08T01:24:20.847Z,-11.45
2022-12-08T01:27:06.516Z,-11.11
2022-12-08T01:29:34.834Z,-11.40
2022-12-08T01:32:02.580Z,-11.39
2022-12-08T01:34:30.180Z,-11.37
2022-12-08T01:36:57.655Z,-11.54
2022-12-08T01:39:25.161Z,-11.61
2022-12-08T01:41:52.560Z,-11.75
2022-12-08T01:44:20.028Z,-11.40
2022-12-08T01:46:49.142Z,-11.69
2022-12-08T01:49:42.946Z,-11.67
2022-12-08T01:52:27.246Z,-11.80
2022-12-08T01:55:11.386Z,-11.75
2022-12-08T01:57:47.687Z,-11.57
2022-12-08T02:00:18.044Z,-11.49
2022-12-08T02:02:57.732Z,-11.13
2022-12-08T02:05:29.019Z,-11.54
2022-12-08T02:07:58.936Z,-11.23
2022-12-08T02:10:30.141Z,-11.27
2022-12-08T02:12:59.175Z,-10.81
2022-12-08T02:15:46.322Z,-11.10
2022-12-08T02:18:25.944Z,-11.34
2022-12-08T02:21:03.273Z,-10.99
2022-12-08T02:23:41.604Z,-10.75
2022-12-08T02:26:15.573Z,-11.00
2022-12-08T02:29:01.731Z,-11.31
2022-12-08T02:32:07.541Z,-10.74
2022-12-08T02:34:41.560Z,-10.58
2022-12-08T02:37:24.228Z,-10.80
2022-12-08T02:40:02.603Z,-10.93
2022-12-08T02:43:12.022Z,-11.10
2022-12-08T02:45:49.407Z,-10.77
2022-12-08T02:48:17.106Z,-10.76
2022-12-08T02:50:44.612Z,-10.91
2022-12-08T02:56:03.251Z,-10.64
2022-12-08T02:58:43.052Z,-11.07
2022-12-08T03:01:29.571Z,-10.84
2022-12-08T03:04:10.294Z,-10.87
2022-12-08T03:06:56.685Z,-11.00
2022-12-08T03:09:47.613Z,-10.96
2022-12-08T03:15:19.308Z,-10.51
2022-12-08T03:17:53.117Z,-10.56
2022-12-08T03:20:24.141Z,-10.74
2022-12-08T03:22:56.115Z,-10.31
2022-12-08T03:25:28.259Z,-10.37
2022-12-08T03:27:56.018Z,-10.42
2022-12-08T03:30:23.748Z,-10.44
2022-12-08T03:32:54.066Z,-10.54
2022-12-08T03:35:26.279Z,-10.32
2022-12-08T03:38:04.292Z,-10.42
2022-12-08T03:40:32.015Z,-10.40
2022-12-08T03:42:59.650Z,-10.25
2022-12-08T03:45:27.339Z,-10.43
2022-12-08T03:47:54.952Z,-10.34
2022-12-08T03:50:22.790Z,-10.51
2022-12-08T03:52:50.907Z,-10.74
2022-12-08T03:55:18.912Z,-10.41
2022-12-08T03:57:46.433Z,-10.37
2022-12-08T04:00:17.309Z,-10.07
2022-12-08T04:02:45.165Z,-10.03
2022-12-08T04:05:12.795Z,-10.20
2022-12-08T04:07:40.469Z,-10.05
2022-12-08T04:10:10.902Z,-10.19
2022-12-08T04:12:38.559Z,-10.17
2022-12-08T04:15:06.391Z,-10.29
2022-12-08T04:17:33.968Z,-10.44
2022-12-08T04:20:01.658Z,-10.32
2022-12-08T04:22:30.185Z,-10.18
2022-12-08T04:24:57.691Z,-9.82
2022-12-08T04:27:25.424Z,-9.98
2022-12-08T04:29:52.924Z,-10.16
2022-12-08T04:32:23.338Z,-9.76
2022-12-08T04:34:50.882Z,-9.67
2022-12-08T04:37:18.337Z,-9.80
2022-12-08T04:39:45.762Z,-9.62
2022-12-08T04:42:13.411Z,-9.19
2022-12-08T04:44:40.896Z,-9.21
2022-12-08T04:47:08.715Z,-9.47
2022-12-08T04:49:36.298Z,-9.36
2022-12-08T04:52:04.071Z,-9.53
2022-12-08T04:54:31.710Z,-9.44
2022-12-08T04:56:59.274Z,-9.13
2022-12-08T04:59:27.015Z,-8.93
2022-12-08T05:01:54.568Z,-9.06
2022-12-08T05:04:22.554Z,-9.14
2022-12-08T05:06:50.505Z,-9.16
2022-12-08T05:09:19.082Z,-9.31
2022-12-08T05:11:49.268Z,-9.22
2022-12-08T05:14:18.749Z,-9.25
2022-12-08T05:16:47.978Z,-9.10
2022-12-08T05:19:16.876Z,-9.04
2022-12-08T05:21:45.439Z,-8.70
2022-12-08T05:24:13.635Z,-9.07
2022-12-08T05:26:41.290Z,-9.06
2022-12-08T05:29:09.805Z,-9.19
2022-12-08T05:31:38.344Z,-8.94
2022-12-08T05:34:06.690Z,-8.73
2022-12-08T05:36:35.065Z,-8.33
2022-12-08T05:39:02.965Z,-8.10
2022-12-08T05:41:30.965Z,-7.99
2022-12-08T05:44:02.108Z,-8.00
2022-12-08T05:46:40.838Z,-7.95
2022-12-08T05:49:08.500Z,-7.90
2022-12-08T05:51:37.458Z,-7.98
2022-12-08T05:54:15.181Z,-8.22
2022-12-08T05:59:35.650Z,-8.08
2022-12-08T06:04:46.805Z,-7.75
2022-12-08T06:07:16.189Z,-7.86
2022-12-08T06:09:44.617Z,-7.61
2022-12-08T06:12:12.968Z,-7.48
2022-12-08T06:14:41.957Z,-7.34
2022-12-08T06:17:10.744Z,-7.61
2022-12-08T06:19:40.173Z,-7.62
2022-12-08T06:22:09.058Z,-7.50
2022-12-08T06:24:38.346Z,-7.39
2022-12-08T06:27:06.974Z,-7.24
2022-12-08T06:29:43.483Z,-6.92
2022-12-08T06:32:58.968Z,-7.51
2022-12-08T06:35:29.390Z,-7.64
2022-12-08T06:37:59.091Z,-7.17
2022-12-08T06:40:29.453Z,-7.05
2022-12-08T06:42:57.169Z,-7.24
2022-12-08T06:45:24.935Z,-7.34
2022-12-08T06:47:53.642Z,-7.56
2022-12-08T06:50:21.601Z,-7.46
2022-12-08T06:53:05.092Z,-7.34
2022-12-08T06:58:23.574Z,-7.27
2022-12-08T07:00:53.155Z,-7.05
2022-12-08T07:03:22.083Z,-7.12
2022-12-08T07:05:50.115Z,-7.11
2022-12-08T07:08:18.032Z,-7.22
2022-12-08T07:10:45.956Z,-7.19
2022-12-08T07:13:13.686Z,-7.01
2022-12-08T07:15:41.370Z,-6.86
2022-12-08T07:18:09.453Z,-6.86
2022-12-08T07:20:37.408Z,-7.09
2022-12-08T07:23:06.663Z,-6.70
2022-12-08T07:25:38.557Z,-6.99
2022-12-08T07:28:12.698Z,-7.21
2022-12-08T07:30:50.351Z,-6.97
2022-12-08T07:33:23.560Z,-6.84
2022-12-08T07:36:08.264Z,-6.65
2022-12-08T07:38:55.245Z,-6.69
2022-12-08T07:41:28.746Z,-6.46
2022-12-08T07:44:02.894Z,-6.54
2022-12-08T07:46:31.034Z,-6.62
2022-12-08T07:48:59.644Z,-6.96
2022-12-08T07:51:27.871Z,-6.78
2022-12-08T07:54:00.108Z,-7.01
2022-12-08T07:56:30.002Z,-6.83
2022-12-08T07:58:59.528Z,-6.76
2022-12-08T08:01:29.562Z,-6.92
2022-12-08T08:04:01.879Z,-7.08
2022-12-08T08:06:32.826Z,-6.73
2022-12-08T08:09:01.957Z,-6.47
2022-12-08T08:11:30.081Z,-6.21
2022-12-08T08:13:58.417Z,-6.32
2022-12-08T08:16:26.863Z,-6.34
2022-12-08T08:18:55.110Z,-6.37
2022-12-08T08:24:12.682Z,-5.67
2022-12-08T08:26:43.142Z,-5.71
2022-12-08T08:29:11.998Z,-6.02
2022-12-08T08:31:42.960Z,-5.97
2022-12-08T08:34:11.855Z,-5.82
2022-12-08T08:36:44.566Z,-5.61
2022-12-08T08:39:17.641Z,-5.76
2022-12-08T08:42:02.885Z,-5.90
2022-12-08T08:44:32.881Z,-6.05
2022-12-08T08:47:00.951Z,-5.78
2022-12-08T08:49:29.885Z,-5.83
2022-12-08T08:51:58.099Z,-5.59
2022-12-08T08:54:30.963Z,-5.72
2022-12-08T08:57:00.738Z,-5.46
2022-12-08T08:59:29.986Z,-5.53
2022-12-08T09:01:58.874Z,-5.74
2022-12-08T09:04:27.428Z,-5.63
2022-12-08T09:06:59.273Z,-5.52
2022-12-08T09:09:29.366Z,-5.46
2022-12-08T09:12:05.919Z,-5.33
2022-12-08T09:14:35.460Z,-5.33
2022-12-08T09:17:08.025Z,-5.61
2022-12-08T09:19:59.307Z,-5.39
2022-12-08T11:05:03.054Z,-3.52
2022-12-08T11:07:31.313Z,-3.33
2022-12-08T11:10:02.784Z,-3.67
2022-12-08T11:12:33.433Z,-3.64
2022-12-08T11:15:03.876Z,-3.42
2022-12-08T11:17:42.455Z,-3.29
2022-12-08T11:20:10.814Z,-3.68
2022-12-08T11:22:48.510Z,-3.37
2022-12-08T11:25:28.427Z,-3.71
2022-12-08T11:28:01.757Z,-3.58
2022-12-08T11:30:38.263Z,-3.61
2022-12-08T11:33:26.106Z,-3.26
2022-12-08T11:36:11.502Z,-3.20
2022-12-08T11:38:46.933Z,-3.21
2022-12-08T11:41:21.973Z,-3.46
2022-12-08T11:44:33.146Z,-3.34
2022-12-08T11:47:25.586Z,-3.39
2022-12-08T11:50:04.086Z,-3.65
2022-12-08T11:52:42.374Z,-3.49
2022-12-08T11:55:36.940Z,-3.49
2022-12-08T11:58:30.207Z,-3.38
2022-12-08T12:00:59.974Z,-3.50
2022-12-08T12:03:45.084Z,-3.35
2022-12-08T12:06:30.440Z,-2.98
2022-12-08T12:09:11.503Z,-3.41
2022-12-08T12:12:04.199Z,-3.35
2022-12-08T12:14:43.730Z,-3.42
2022-12-08T12:17:27.018Z,-3.28
2022-12-08T12:19:57.835Z,-3.42
2022-12-08T12:22:37.032Z,-3.63
2022-12-08T12:25:06.070Z,-3.60
2022-12-08T12:27:40.298Z,-3.78
2022-12-08T12:30:18.983Z,-3.77
2022-12-08T12:32:54.040Z,-3.73
2022-12-08T12:35:28.804Z,-3.72
2022-12-08T12:38:01.459Z,-3.92
2022-12-08T12:40:40.116Z,-4.01
2022-12-08T12:43:10.692Z,-3.82
2022-12-08T12:45:44.446Z,-3.70
2022-12-08T12:48:24.324Z,-3.74
2022-12-08T12:50:52.897Z,-3.30
2022-12-08T12:53:20.650Z,-3.49
2022-12-08T12:56:05.493Z,-3.30
2022-12-08T12:58:33.768Z,-3.69
2022-12-08T13:01:13.658Z,-3.57
2022-12-08T13:03:46.127Z,-3.72
2022-12-08T13:06:16.045Z,-3.60
2022-12-08T13:08:53.901Z,-3.77
2022-12-08T13:11:22.960Z,-3.95
2022-12-08T13:14:01.609Z,-3.70
2022-12-08T13:16:33.759Z,-3.84
2022-12-08T13:19:05.727Z,-3.79
2022-12-08T13:21:38.650Z,-3.99
2022-12-08T13:24:21.252Z,-3.77
2022-12-08T13:27:05.452Z,-4.13
2022-12-08T13:29:38.586Z,-4.03
2022-12-08T13:32:30.654Z,-4.08
2022-12-08T13:35:05.464Z,-4.10
2022-12-08T13:37:54.856Z,-4.09
2022-12-08T13:40:31.150Z,-3.95
2022-12-08T13:43:22.318Z,-4.02
2022-12-08T13:55:35.546Z,-3.78
2022-12-08T13:57:33.969Z,-3.80
2022-12-08T14:00:08.176Z,-3.96
2022-12-08T14:02:48.702Z,-4.05
2022-12-08T14:05:40.823Z,-3.99
2022-12-08T14:08:51.004Z,-4.16
2022-12-08T14:11:33.746Z,-4.29
2022-12-08T14:14:45.995Z,-4.34
2022-12-08T14:20:01.881Z,-4.09
2022-12-08T14:22:39.555Z,-3.89
2022-12-08T14:25:13.727Z,-4.00
2022-12-08T14:30:31.404Z,-3.91
2022-12-08T14:33:01.359Z,-4.06
2022-12-08T14:35:31.306Z,-4.05
2022-12-08T14:38:02.191Z,-3.88
2022-12-08T14:40:38.693Z,-3.74
2022-12-08T14:43:13.943Z,-3.83
2022-12-08T14:45:41.643Z,-4.21
2022-12-08T14:48:27.244Z,-4.09
2022-12-08T14:50:54.750Z,-4.15
2022-12-08T14:53:22.669Z,-4.32
2022-12-08T14:55:50.756Z,-3.92
2022-12-08T14:58:28.004Z,-4.18
2022-12-08T15:01:00.222Z,-4.03
2022-12-08T15:03:30.822Z,-4.14
2022-12-08T15:06:03.432Z,-4.12
2022-12-08T15:08:32.617Z,-4.47
2022-12-08T15:11:30.361Z,-4.39
2022-12-08T15:13:58.450Z,-4.24
2022-12-08T15:16:29.768Z,-3.83
2022-12-08T15:19:28.645Z,-4.01
2022-12-08T15:22:10.631Z,-4.06
2022-12-08T15:24:38.305Z,-4.17
2022-12-08T15:27:05.786Z,-4.10
2022-12-08T15:29:33.561Z,-4.23
2022-12-08T15:32:02.542Z,-4.64
2022-12-08T15:34:31.802Z,-4.77
2022-12-08T15:36:59.241Z,-4.47
2022-12-08T15:39:38.899Z,-4.44
2022-12-08T15:42:12.503Z,-4.59
2022-12-08T15:44:41.112Z,-4.64
2022-12-08T15:47:22.909Z,-4.29
2022-12-08T15:49:52.846Z,-4.22
2022-12-08T15:52:22.591Z,-4.33
2022-12-08T15:54:50.542Z,-4.46
2022-12-08T15:58:04.075Z,-4.15
2022-12-08T16:04:19.890Z,-4.44
2022-12-08T16:07:04.844Z,-4.45
2022-12-08T16:09:19.697Z,-4.21
2022-12-08T16:12:09.049Z,-4.17
2022-12-08T16:17:27.080Z,-4.36
2022-12-08T16:19:54.880Z,-4.40
2022-12-08T16:25:19.464Z,-4.51
2022-12-08T16:30:37.856Z,-4.57
2022-12-08T16:33:05.466Z,-4.73
2022-12-08T16:35:33.180Z,-4.86
2022-12-08T16:38:00.953Z,-4.71
2022-12-08T16:40:28.495Z,-4.74
2022-12-08T16:42:55.949Z,-4.52
2022-12-08T16:45:29.403Z,-4.71
2022-12-08T16:47:59.544Z,-4.64
2022-12-08T16:50:32.903Z,-4.42
2022-12-08T16:53:07.819Z,-4.18
2022-12-08T16:55:35.498Z,-4.38
2022-12-08T16:58:03.933Z,-4.67
2022-12-08T17:00:37.289Z,-4.58
2022-12-08T17:03:08.243Z,-4.09
2022-12-08T17:05:36.098Z,-4.24
2022-12-08T17:08:03.695Z,-4.29
2022-12-08T17:10:34.665Z,-4.09
2022-12-08T17:13:03.064Z,-3.98
2022-12-08T17:15:30.650Z,-4.00
2022-12-08T17:17:58.162Z,-4.19
2022-12-08T17:20:28.087Z,-4.14
2022-12-08T17:22:57.736Z,-4.21
2022-12-08T17:25:26.846Z,-4.01
2022-12-08T17:27:54.596Z,-4.11
2022-12-08T17:30:22.448Z,-4.23
2022-12-08T17:32:49.993Z,-3.99
2022-12-08T17:35:17.571Z,-3.56
2022-12-08T17:37:45.347Z,-3.70
2022-12-08T17:40:13.175Z,-3.45
2022-12-08T17:42:41.239Z,-3.48
2022-12-08T17:45:09.610Z,-3.68
2022-12-08T17:47:37.566Z,-3.50
2022-12-08T17:50:06.864Z,-3.50
2022-12-08T17:52:34.819Z,-3.33
2022-12-08T17:55:02.421Z,-3.05
2022-12-08T17:57:31.102Z,-2.89
2022-12-08T17:59:58.543Z,-3.06
2022-12-08T18:02:26.252Z,-3.07
2022-12-08T18:04:53.794Z,-3.22
2022-12-08T18:07:21.246Z,-3.16
2022-12-08T18:09:48.702Z,-3.60
2022-12-08T18:12:22.307Z,-3.21
2022-12-08T18:14:51.950Z,-3.46
2022-12-08T18:17:19.406Z,-3.76
2022-12-08T18:19:47.050Z,-3.53
2022-12-08T18:22:16.202Z,-3.68
2022-12-08T18:24:44.049Z,-3.95
2022-12-08T18:27:11.730Z,-3.98
2022-12-08T18:29:40.245Z,-3.71
2022-12-08T18:32:08.614Z,-3.63
2022-12-08T18:34:36.570Z,-3.66
2022-12-08T18:37:04.149Z,-3.37
2022-12-08T18:39:33.154Z,-3.60
2022-12-08T18:42:02.875Z,-3.61
2022-12-08T18:44:30.492Z,-3.46
2022-12-08T18:46:57.887Z,-3.34
2022-12-08T18:49:26.822Z,-3.20
2022-12-08T18:51:54.354Z,-3.33
2022-12-08T18:54:27.669Z,-3.60
2022-12-08T18:57:05.410Z,-3.40
2022-12-08T18:59:33.254Z,-3.35
2022-12-08T19:02:01.156Z,-3.12
2022-12-08T19:04:29.569Z,-3.13
2022-12-08T19:06:57.816Z,-3.29
2022-12-08T19:09:27.107Z,-3.28
2022-12-08T19:11:55.670Z,-3.53
2022-12-08T19:14:27.930Z,-3.57
2022-12-08T19:16:57.951Z,-3.44
2022-12-08T19:19:27.650Z,-3.54
2022-12-08T19:21:55.351Z,-3.51
2022-12-08T19:24:23.341Z,-3.21
2022-12-08T19:26:51.101Z,-3.18
2022-12-08T19:29:18.703Z,-3.25
2022-12-08T19:31:46.359Z,-3.62
2022-12-08T19:34:14.765Z,-3.52
2022-12-08T19:36:51.486Z,-3.61
2022-12-08T19:39:41.381Z,-3.86
2022-12-08T19:42:36.598Z,-3.80
2022-12-08T19:45:16.828Z,-3.26
2022-12-08T19:47:44.838Z,-3.23
2022-12-08T19:50:33.284Z,-3.28
2022-12-08T19:53:01.722Z,-3.26
2022-12-08T19:55:29.690Z,-3.18
2022-12-08T19:57:57.402Z,-3.18
2022-12-08T20:00:24.992Z,-3.21
2022-12-08T20:02:52.632Z,-3.22
2022-12-08T20:05:20.323Z,-3.51
2022-12-08T20:07:48.145Z,-3.66
2022-12-08T20:10:28.313Z,-3.77
2022-12-08T20:13:16.630Z,-3.95
2022-12-08T20:15:44.702Z,-4.01
2022-12-08T20:18:13.559Z,-3.76
2022-12-08T20:20:41.310Z,-3.86
2022-12-08T20:23:09.202Z,-3.78
2022-12-08T20:25:41.145Z,-3.68
2022-12-08T20:28:09.390Z,-3.85
2022-12-08T20:30:45.378Z,-3.84
2022-12-08T20:33:17.227Z,-3.58
2022-12-08T20:35:46.224Z,-3.91
2022-12-08T20:38:14.167Z,-4.12
2022-12-08T20:40:47.451Z,-4.14
2022-12-08T20:43:15.093Z,-4.28
2022-12-08T20:45:42.552Z,-4.30
2022-12-08T20:48:10.416Z,-4.21
2022-12-08T20:50:38.118Z,-4.27
2022-12-08T20:53:06.529Z,-4.20
2022-12-08T20:55:35.763Z,-4.29
2022-12-08T20:58:03.222Z,-4.44
2022-12-08T21:00:31.037Z,-4.20
2022-12-08T21:02:58.882Z,-4.60
2022-12-08T21:05:26.870Z,-4.23
2022-12-08T21:07:54.666Z,-4.10
2022-12-08T21:10:22.552Z,-3.84
2022-12-08T21:12:50.051Z,-4.12
2022-12-08T21:15:17.702Z,-3.98
2022-12-08T21:17:45.371Z,-4.43
2022-12-08T21:20:13.192Z,-4.28
2022-12-08T21:22:41.252Z,-4.47
2022-12-08T21:25:09.316Z,-4.68
2022-12-08T21:27:39.182Z,-4.38
2022-12-08T21:30:09.431Z,-4.05
2022-12-08T21:32:41.005Z,-4.05
2022-12-08T21:35:09.672Z,-4.34
2022-12-08T21:37:37.409Z,-4.68
2022-12-08T21:40:07.163Z,-4.62
2022-12-08T21:42:44.082Z,-4.97
2022-12-08T21:45:18.223Z,-4.86
2022-12-08T21:47:47.702Z,-4.71
2022-12-08T21:50:16.115Z,-4.91
2022-12-08T21:52:46.583Z,-4.70
2022-12-08T21:55:16.065Z,-4.86
2022-12-08T21:57:43.572Z,-4.66
2022-12-08T22:00:16.206Z,-4.88
2022-12-08T22:02:44.479Z,-4.68
2022-12-08T22:05:12.329Z,-4.60
2022-12-08T22:07:41.139Z,-4.88
2022-12-08T22:10:11.040Z,-5.16
2022-12-08T22:12:45.034Z,-5.17
2022-12-08T22:15:13.062Z,-5.10
2022-12-08T22:17:42.910Z,-5.18
2022-12-08T22:20:13.298Z,-5.16
2022-12-08T22:22:41.768Z,-4.79
2022-12-08T22:25:13.744Z,-4.72
2022-12-08T22:27:41.764Z,-4.66
2022-12-08T22:30:11.070Z,-4.73
2022-12-08T22:32:39.394Z,-4.84
2022-12-08T22:35:07.412Z,-4.95
2022-12-08T22:37:35.132Z,-5.07
2022-12-08T22:40:02.570Z,-5.33
2022-12-08T22:42:30.721Z,-5.03
2022-12-08T22:44:58.060Z,-4.75
2022-12-08T22:47:25.671Z,-4.72
2022-12-08T22:49:53.131Z,-4.81
2022-12-08T22:52:20.782Z,-4.74
2022-12-08T22:54:48.243Z,-4.99
2022-12-08T22:57:16.062Z,-4.86
2022-12-08T22:59:43.726Z,-4.70
2022-12-08T23:02:11.481Z,-4.96
2022-12-08T23:04:38.956Z,-4.98
2022-12-08T23:07:06.651Z,-4.82
2022-12-08T23:09:34.145Z,-4.86
2022-12-08T23:12:05.923Z,-5.16
2022-12-08T23:14:34.651Z,-5.42
2022-12-08T23:17:02.262Z,-5.21
2022-12-08T23:19:29.689Z,-5.02
2022-12-08T23:21:57.433Z,-5.25
2022-12-08T23:24:25.021Z,-5.23
2022-12-08T23:26:52.418Z,-5.26
2022-12-08T23:29:19.838Z,-5.21
2022-12-08T23:31:47.556Z,-5.01
2022-12-08T23:34:14.972Z,-5.16
2022-12-08T23:36:42.538Z,-5.24
2022-12-08T23:39:11.786Z,-5.12
2022-12-08T23:41:39.393Z,-5.21
2022-12-08T23:44:07.158Z,-5.25
2022-12-08T23:46:35.204Z,-5.16
2022-12-08T23:49:02.665Z,-5.04
2022-12-08T23:51:30.701Z,-4.96
2022-12-08T23:53:58.391Z,-4.90
2022-12-08T23:56:30.243Z,-5.23
2022-12-08T23:58:58.052Z,-5.17
